MDSD/SDQ METAR and TAF weather

Enter ICAO airport designator
Station Type Date Time Source
MDSD METAR 2022/05/26 04:00 UTC NOAA

MDSD 260400Z 03006KT 9999 SCT016 23/23 Q1018


Station Type Date Time Source
MDSD Decoded METAR 2022/05/26 04:00 UTC NOAA

Las Americas, Dominican Republic (MDSD) 18-26N 069-40W
May 26, 2022 - 12:00 AM EDT / 2022.05.26 0400 UTC
Wind: from the NNE (030 degrees) at 7 MPH (6 KT):0
Visibility: greater than 7 mile(s):0
Sky conditions: partly cloudy
Temperature: 73 F (23 C)
Dew Point: 73 F (23 C)
Relative Humidity: 100%
Pressure (altimeter): 30.06 in. Hg (1018 hPa)
ob: MDSD 260400Z 03006KT 9999 SCT016 23/23 Q1018
cycle: 4

Station Type Date Time Source
MDSD TAF 2022/05/26 06:30 UTC NOAA

TAF MDSD 260400Z 2606/2706 05005KT 9999 SCT016 PROB30 2606/2611 7000-RA FEW014CB BKN016
BECMG 2615/2617 13007KT

Example: see airport list